Time;durP1;ratioP1;P1;durP2;ratioP2;P2;SDS_P1;SDS_P2;PMS_P1;PMS_P2;Temp;Humidity;BMP_temperature;BMP_pressure;BME280_temperature;BME280_humidity;BME280_pressure;Samples;Min_cycle;Max_cycle;Signal;HPM_P1;HPM_P2
2022/05/10 03:02:59;;;;;;;21.43;19.27;;;9.90;99.90;;;;;;4936025;29;20216;-79
2022/05/10 03:05:25;;;;;;;22.97;21.17;;;9.90;99.90;;;;;;4941223;28;20183;-77
2022/05/10 03:07:53;;;;;;;21.33;19.53;;;9.90;99.90;;;;;;4941120;29;20191;-79
2022/05/10 03:10:20;;;;;;;24.03;22.00;;;9.90;99.90;;;;;;4916560;29;20179;-79
2022/05/10 03:12:46;;;;;;;20.97;19.13;;;9.90;99.90;;;;;;4917138;29;20218;-78
2022/05/10 03:15:12;;;;;;;22.80;21.03;;;9.90;99.90;;;;;;4930118;29;20189;-78
2022/05/10 03:17:37;;;;;;;22.13;20.43;;;9.90;99.90;;;;;;4920038;29;20175;-77
2022/05/10 03:20:04;;;;;;;23.57;21.77;;;9.90;99.90;;;;;;4935417;29;20245;-80
2022/05/10 03:22:30;;;;;;;22.27;20.57;;;9.90;99.90;;;;;;4936895;29;20202;-78
2022/05/10 03:24:55;;;;;;;22.47;20.50;;;9.90;99.90;;;;;;4929399;29;20222;-79
2022/05/10 03:27:22;;;;;;;22.73;20.90;;;9.90;99.90;;;;;;4934088;29;20186;-78
2022/05/10 03:29:48;;;;;;;21.10;19.47;;;9.90;99.90;;;;;;4932705;29;20218;-78
2022/05/10 03:32:14;;;;;;;22.83;20.87;;;9.80;99.90;;;;;;4936043;29;20222;-79
2022/05/10 03:34:56;;;;;;;23.13;21.23;;;9.90;99.90;;;;;;4935659;29;20574;-79
2022/05/10 03:37:23;;;;;;;22.10;20.30;;;9.90;99.90;;;;;;4936316;29;20594;-79
2022/05/10 03:39:49;;;;;;;19.80;18.23;;;9.90;99.90;;;;;;4935875;29;20184;-79
2022/05/10 03:42:15;;;;;;;23.90;21.93;;;9.80;99.90;;;;;;4937274;28;20307;-79
2022/05/10 03:44:41;;;;;;;22.20;20.30;;;9.80;99.90;;;;;;4942022;29;20203;-78
2022/05/10 03:47:09;;;;;;;19.00;17.23;;;9.80;99.90;;;;;;4942079;29;20277;-78
2022/05/10 03:49:35;;;;;;;17.90;16.43;;;9.80;99.90;;;;;;4938914;29;20182;-78
2022/05/10 03:52:01;;;;;;;21.03;19.27;;;9.70;99.90;;;;;;4934650;29;20224;-78
2022/05/10 03:54:27;;;;;;;22.90;21.10;;;9.70;99.90;;;;;;4935241;29;20186;-79
2022/05/10 03:56:53;;;;;;;22.37;20.70;;;9.60;99.90;;;;;;4919665;29;20183;-78
2022/05/10 03:59:20;;;;;;;22.60;20.60;;;9.60;99.90;;;;;;4933248;29;20175;-79
2022/05/10 04:01:46;;;;;;;23.07;21.13;;;9.60;99.90;;;;;;4940123;29;20218;-78
2022/05/10 04:04:13;;;;;;;22.23;20.33;;;9.50;99.90;;;;;;4941463;29;20189;-79
2022/05/10 04:06:39;;;;;;;21.93;20.13;;;9.60;99.90;;;;;;4938503;29;20190;-78
2022/05/10 04:09:05;;;;;;;21.57;19.63;;;9.60;99.90;;;;;;4934706;29;20269;-79
2022/05/10 04:11:31;;;;;;;21.90;19.80;;;9.60;99.90;;;;;;4934496;29;20242;-77
2022/05/10 04:13:57;;;;;;;23.03;21.20;;;9.70;99.90;;;;;;4941198;28;20201;-79
2022/05/10 04:16:22;;;;;;;20.90;18.97;;;9.70;99.90;;;;;;4943189;29;20186;-79
2022/05/10 04:18:48;;;;;;;20.43;18.73;;;9.60;99.90;;;;;;4942466;29;20183;-79
2022/05/10 04:21:14;;;;;;;19.97;17.77;;;9.60;99.90;;;;;;4941056;29;20203;-78
2022/05/10 04:23:40;;;;;;;21.93;20.00;;;9.70;99.90;;;;;;4941313;29;20192;-79
2022/05/10 04:26:11;;;;;;;21.00;19.10;;;9.70;99.90;;;;;;4943048;29;20274;-79
2022/05/10 04:28:37;;;;;;;23.03;20.47;;;9.80;99.90;;;;;;4941728;29;20197;-79
2022/05/10 04:31:03;;;;;;;21.97;20.27;;;9.90;99.90;;;;;;4944903;29;20567;-77
2022/05/10 04:33:29;;;;;;;21.23;19.43;;;10.00;99.90;;;;;;4947171;29;20217;-77
2022/05/10 04:35:55;;;;;;;20.63;18.73;;;10.10;99.90;;;;;;4945791;29;20248;-77
2022/05/10 04:38:21;;;;;;;19.10;17.40;;;10.10;99.90;;;;;;4942720;29;20217;-79
2022/05/10 04:43:35;;;;;;;19.77;17.67;;;10.20;99.90;;;;;;4946612;29;20187;-78
2022/05/10 04:46:01;;;;;;;27.00;20.83;;;10.40;99.90;;;;;;4947791;29;20206;-77
2022/05/10 04:48:27;;;;;;;26.07;24.10;;;10.60;99.90;;;;;;4942240;29;20186;-78
2022/05/10 04:50:54;;;;;;;21.23;19.40;;;10.70;99.90;;;;;;4939196;29;20813;-78
2022/05/10 04:53:20;;;;;;;23.57;21.33;;;10.80;99.90;;;;;;4939527;29;20224;-79
2022/05/10 04:55:46;;;;;;;25.37;23.30;;;11.00;99.90;;;;;;4939023;29;20258;-78
2022/05/10 04:58:14;;;;;;;36.10;33.40;;;11.10;99.90;;;;;;4941346;29;20605;-79
2022/05/10 05:00:40;;;;;;;20.30;18.33;;;11.30;99.90;;;;;;4939747;29;20232;-79
2022/05/10 05:03:05;;;;;;;18.20;16.37;;;11.50;99.90;;;;;;4951295;29;20189;-77
2022/05/10 05:05:31;;;;;;;25.90;24.03;;;11.80;99.90;;;;;;4952046;29;20193;-76
2022/05/10 05:07:57;;;;;;;20.47;18.57;;;12.20;99.90;;;;;;4935694;29;20625;-75
2022/05/10 05:10:24;;;;;;;67.33;62.80;;;12.70;99.90;;;;;;4937965;29;20188;-76
2022/05/10 05:12:51;;;;;;;32.10;29.93;;;13.20;99.90;;;;;;4937551;29;20218;-76
2022/05/10 05:15:17;;;;;;;18.07;16.53;;;13.80;99.90;;;;;;4936368;29;20186;-76
2022/05/10 05:17:44;;;;;;;19.20;17.70;;;14.30;99.90;;;;;;4936075;29;20182;-76
2022/05/10 05:20:10;;;;;;;19.43;17.83;;;14.80;99.90;;;;;;4936204;29;20182;-76
2022/05/10 05:22:36;;;;;;;17.07;15.53;;;15.30;99.90;;;;;;4934961;29;20190;-76
2022/05/10 05:25:03;;;;;;;14.50;13.43;;;15.70;99.90;;;;;;4936206;29;20178;-76
2022/05/10 05:27:29;;;;;;;13.73;12.53;;;16.00;99.90;;;;;;4935887;29;20186;-76
2022/05/10 05:29:55;;;;;;;14.67;13.37;;;16.50;99.90;;;;;;4935678;29;20865;-76
2022/05/10 05:32:26;;;;;;;21.73;20.17;;;16.70;99.90;;;;;;4935744;29;20658;-76
2022/05/10 05:34:52;;;;;;;38.27;35.87;;;17.10;99.90;;;;;;4935475;29;20214;-76
2022/05/10 05:37:34;;;;;;;47.70;44.70;;;17.10;99.90;;;;;;4935482;29;20600;-76
2022/05/10 05:40:08;;;;;;;30.83;28.67;;;17.50;99.90;;;;;;4934949;29;20240;-76
2022/05/10 05:42:35;;;;;;;14.77;13.73;;;17.90;99.90;;;;;;4934407;29;20189;-75
2022/05/10 05:45:01;;;;;;;13.83;12.67;;;18.20;99.90;;;;;;4934022;28;20182;-76
2022/05/10 05:47:27;;;;;;;14.00;12.90;;;18.40;99.90;;;;;;4934969;29;20221;-71
2022/05/10 05:49:53;;;;;;;19.03;17.73;;;18.70;99.90;;;;;;4935764;29;20214;-71
2022/05/10 05:52:21;;;;;;;21.23;19.73;;;18.80;99.90;;;;;;4935470;28;20309;-71
2022/05/10 05:54:49;;;;;;;25.27;23.37;;;18.70;99.90;;;;;;4935713;29;20227;-71
2022/05/10 05:57:15;;;;;;;20.97;19.23;;;19.00;99.90;;;;;;4935247;29;20218;-73
2022/05/10 05:59:41;;;;;;;17.27;15.77;;;19.20;99.90;;;;;;4935488;28;20535;-70
2022/05/10 06:02:12;;;;;;;17.07;15.50;;;19.20;99.90;;;;;;4935382;28;20250;-72
2022/05/10 06:04:38;;;;;;;13.27;12.17;;;19.40;99.90;;;;;;4934612;29;20540;-71
2022/05/10 06:07:04;;;;;;;14.13;13.07;;;19.20;99.90;;;;;;4935161;28;20191;-71
2022/05/10 06:09:30;;;;;;;21.87;20.30;;;19.40;99.90;;;;;;4935444;29;20603;-71
2022/05/10 06:11:56;;;;;;;26.02;24.33;;;19.70;99.90;;;;;;4934231;29;20747;-71
2022/05/10 06:14:21;;;;;;;27.08;25.27;;;20.00;99.90;;;;;;4935625;29;20532;-71
2022/05/10 06:16:47;;;;;;;23.05;21.52;;;20.40;99.90;;;;;;4934999;28;20182;-71
2022/05/10 06:19:13;;;;;;;21.40;19.97;;;20.40;99.90;;;;;;4935185;29;20266;-71
2022/05/10 06:21:41;;;;;;;18.33;16.85;;;20.70;99.90;;;;;;4935031;28;20813;-71
2022/05/10 06:24:08;;;;;;;17.20;16.00;;;20.80;99.90;;;;;;4935193;29;20197;-71
2022/05/10 06:26:34;;;;;;;16.13;14.68;;;20.60;99.90;;;;;;4935028;29;20186;-71
2022/05/10 06:28:59;;;;;;;16.90;15.70;;;20.50;99.90;;;;;;4933401;29;20208;-71
2022/05/10 06:31:25;;;;;;;18.15;16.77;;;20.70;99.90;;;;;;4934934;29;20273;-71
2022/05/10 06:33:51;;;;;;;17.75;16.45;;;20.70;99.90;;;;;;4934860;28;20178;-71
2022/05/10 06:36:16;;;;;;;18.10;16.90;;;20.60;99.90;;;;;;4934976;28;20607;-71
2022/05/10 06:38:43;;;;;;;30.23;28.13;;;20.20;99.90;;;;;;4934506;29;20559;-72
2022/05/10 06:41:09;;;;;;;24.63;22.95;;;19.90;99.90;;;;;;4933543;29;20202;-72
2022/05/10 06:43:36;;;;;;;20.90;19.40;;;19.80;99.90;;;;;;4934791;28;20193;-71
2022/05/10 06:46:09;;;;;;;17.55;16.17;;;19.70;99.90;;;;;;4922479;28;20191;-71
2022/05/10 06:48:34;;;;;;;15.93;14.63;;;19.80;99.90;;;;;;4914140;29;20723;-71
2022/05/10 06:51:04;;;;;;;20.60;19.00;;;20.10;99.90;;;;;;4938559;29;20210;-71
2022/05/10 06:53:30;;;;;;;24.85;23.13;;;20.40;99.90;;;;;;4934177;29;20222;-71
2022/05/10 06:55:56;;;;;;;23.42;21.85;;;20.60;99.90;;;;;;4934789;29;20179;-71
2022/05/10 06:58:21;;;;;;;17.75;16.25;;;21.10;99.90;;;;;;4934436;29;20273;-71
2022/05/10 07:00:47;;;;;;;14.40;13.02;;;21.60;99.90;;;;;;4934003;29;20214;-71
2022/05/10 07:03:15;;;;;;;13.07;11.88;;;22.30;99.90;;;;;;4932940;29;20222;-71
2022/05/10 07:05:45;;;;;;;13.18;12.02;;;22.60;99.90;;;;;;4934318;29;20189;-71
2022/05/10 07:08:12;;;;;;;14.43;13.13;;;22.70;99.90;;;;;;4933646;28;20709;-71
2022/05/10 07:10:38;;;;;;;13.18;12.05;;;22.90;99.90;;;;;;4934149;28;20296;-71
2022/05/10 07:13:04;;;;;;;13.80;12.70;;;22.90;99.90;;;;;;4915288;29;20311;-71
2022/05/10 07:15:30;;;;;;;14.50;13.18;;;22.90;99.90;;;;;;4915511;29;20244;-71
2022/05/10 07:17:56;;;;;;;13.13;12.23;;;22.80;99.90;;;;;;4914174;29;20217;-71
2022/05/10 07:20:22;;;;;;;13.65;12.32;;;22.80;99.90;;;;;;4913881;29;20648;-71
2022/05/10 07:22:48;;;;;;;13.40;12.40;;;23.10;99.90;;;;;;4915309;29;20186;-71
2022/05/10 07:25:17;;;;;;;13.25;12.15;;;23.60;99.90;;;;;;4915231;29;20307;-71
2022/05/10 07:27:44;;;;;;;12.80;11.90;;;23.50;99.90;;;;;;4914755;29;20833;-71
2022/05/10 07:30:11;;;;;;;12.80;11.90;;;23.30;99.90;;;;;;4915074;29;20191;-71
2022/05/10 07:32:37;;;;;;;13.10;12.07;;;23.50;99.90;;;;;;4914994;29;20215;-71
2022/05/10 07:35:04;;;;;;;12.80;11.80;;;23.90;99.90;;;;;;4914986;29;20175;-71
2022/05/10 07:37:31;;;;;;;12.30;11.07;;;24.30;99.70;;;;;;4914877;29;20214;-71
2022/05/10 07:39:57;;;;;;;11.55;10.50;;;24.70;98.00;;;;;;4915184;29;20183;-71
2022/05/10 07:42:22;;;;;;;11.63;10.70;;;24.70;96.10;;;;;;4915289;29;20229;-71
2022/05/10 07:44:51;;;;;;;10.73;9.85;;;24.90;96.60;;;;;;4915211;29;20187;-71
2022/05/10 07:47:18;;;;;;;12.57;11.68;;;24.80;96.10;;;;;;4914683;29;20254;-71
2022/05/10 07:49:43;;;;;;;10.68;9.68;;;25.00;95.10;;;;;;4913766;29;20242;-71
2022/05/10 07:52:09;;;;;;;10.75;9.77;;;25.10;95.40;;;;;;4914592;29;20876;-70
2022/05/10 07:54:36;;;;;;;11.32;10.35;;;24.70;95.60;;;;;;4913782;29;20274;-70
2022/05/10 07:57:03;;;;;;;11.82;10.73;;;24.50;95.70;;;;;;4914466;29;20198;-71
2022/05/10 07:59:31;;;;;;;11.18;10.13;;;24.90;95.80;;;;;;4917646;29;20651;-71
2022/05/10 08:01:57;;;;;;;13.93;12.68;;;25.50;95.00;;;;;;4918632;29;20223;-71
2022/05/10 08:04:23;;;;;;;13.38;12.18;;;25.70;94.80;;;;;;4921893;29;20194;-71
2022/05/10 08:06:50;;;;;;;14.77;13.77;;;25.80;94.00;;;;;;4919457;29;20190;-71
2022/05/10 08:09:15;;;;;;;17.83;16.50;;;26.10;94.30;;;;;;4918605;29;20652;-72
2022/05/10 08:11:43;;;;;;;15.68;14.55;;;26.40;93.40;;;;;;4917516;29;20225;-72
2022/05/10 08:14:09;;;;;;;16.45;15.00;;;26.40;92.60;;;;;;4918850;29;20186;-71
2022/05/10 08:16:35;;;;;;;15.07;13.82;;;26.40;93.30;;;;;;4922397;29;20179;-72
2022/05/10 08:19:02;;;;;;;14.23;13.23;;;26.70;91.20;;;;;;4925853;29;20183;-71
2022/05/10 08:21:27;;;;;;;11.40;10.48;;;26.70;93.20;;;;;;4932959;29;20199;-71
2022/05/10 08:23:55;;;;;;;10.13;9.23;;;27.10;91.90;;;;;;4950642;29;20688;-71
2022/05/10 08:26:22;;;;;;;10.63;9.73;;;27.70;89.00;;;;;;4937950;29;20261;-71
2022/05/10 08:28:48;;;;;;;11.05;10.10;;;27.60;87.00;;;;;;4941380;29;20663;-71
2022/05/10 08:31:13;;;;;;;11.55;10.55;;;27.70;87.20;;;;;;4937464;29;20273;-70
2022/05/10 08:33:42;;;;;;;10.70;9.65;;;27.70;86.20;;;;;;4937172;29;20277;-71
2022/05/10 08:36:08;;;;;;;11.45;10.55;;;27.60;85.50;;;;;;4937164;29;20600;-71
2022/05/10 08:38:34;;;;;;;10.77;9.77;;;27.90;84.00;;;;;;4935498;29;20175;-72
2022/05/10 08:41:03;;;;;;;12.35;11.45;;;27.90;82.40;;;;;;4936042;29;20233;-71
2022/05/10 08:43:38;;;;;;;12.13;11.05;;;27.80;81.60;;;;;;4936976;28;20178;-71
2022/05/10 08:46:06;;;;;;;10.27;9.48;;;28.00;83.70;;;;;;4936548;28;20182;-71
2022/05/10 08:48:32;;;;;;;9.00;8.15;;;27.60;85.30;;;;;;4936417;28;20183;-71
2022/05/10 08:50:59;;;;;;;9.05;8.35;;;27.30;84.30;;;;;;4935235;29;20281;-71
2022/05/10 08:53:25;;;;;;;10.30;9.45;;;27.50;84.50;;;;;;4936266;29;20217;-72
2022/05/10 08:55:57;;;;;;;10.18;9.35;;;27.50;80.60;;;;;;4936454;28;20666;-70
2022/05/10 08:58:46;;;;;;;9.95;9.02;;;27.90;80.90;;;;;;4936207;28;20203;-71
2022/05/10 09:01:19;;;;;;;10.43;9.63;;;28.20;82.00;;;;;;4935849;29;20265;-71
2022/05/10 09:04:03;;;;;;;11.52;10.52;;;28.50;77.90;;;;;;4935325;29;20182;-71
2022/05/10 09:07:04;;;;;;;10.50;9.60;;;28.50;78.20;;;;;;4936506;29;20595;-71
2022/05/10 09:09:46;;;;;;;12.23;11.25;;;28.50;78.70;;;;;;4876283;29;20762;-71
2022/05/10 09:12:20;;;;;;;12.82;11.73;;;28.70;75.90;;;;;;4929890;29;20230;-69
2022/05/10 09:15:01;;;;;;;11.68;10.48;;;28.90;77.30;;;;;;4971224;23;20261;-76
2022/05/10 09:17:30;;;;;;;12.48;11.68;;;28.80;78.40;;;;;;4951986;29;20858;-77
2022/05/10 09:19:55;;;;;;;12.77;11.98;;;28.60;78.10;;;;;;4954017;29;20178;-77
2022/05/10 09:22:59;;;;;;;13.75;12.57;;;28.50;77.40;;;;;;4954245;28;20276;-77
2022/05/10 09:25:34;;;;;;;11.07;10.27;;;28.70;76.70;;;;;;4942965;29;20196;-76
2022/05/10 09:28:12;;;;;;;10.23;9.23;;;29.10;71.80;;;;;;4954739;28;20185;-77
2022/05/10 09:30:39;;;;;;;9.30;8.60;;;29.10;72.40;;;;;;4955150;29;20222;-77
2022/05/10 09:36:11;;;;;;;9.95;9.35;;;29.10;69.90;;;;;;4955426;29;20275;-77
2022/05/10 09:38:45;;;;;;;9.10;8.40;;;29.00;70.20;;;;;;4962513;29;20209;-77
2022/05/10 09:41:34;;;;;;;8.13;7.50;;;29.20;69.80;;;;;;4970920;29;20181;-77
2022/05/10 09:44:26;;;;;;;7.35;6.85;;;29.30;67.00;;;;;;4964600;29;20252;-77
2022/05/10 09:47:14;;;;;;;7.57;7.00;;;29.40;69.40;;;;;;4963610;28;20288;-77
2022/05/10 09:49:41;;;;;;;7.78;7.22;;;29.90;66.90;;;;;;4960935;29;20189;-77
2022/05/10 09:52:21;;;;;;;7.95;7.43;;;29.70;66.00;;;;;;4970854;29;20264;-76
2022/05/10 09:54:50;;;;;;;12.95;11.93;;;29.60;63.90;;;;;;4957834;29;20202;-77
2022/05/10 09:57:35;;;;;;;12.43;11.63;;;29.60;60.90;;;;;;4957642;28;20205;-77
2022/05/10 10:00:04;;;;;;;12.95;12.15;;;30.10;58.30;;;;;;4957521;29;20178;-77
2022/05/10 10:02:37;;;;;;;12.90;12.13;;;29.90;58.50;;;;;;4956377;29;20189;-77
2022/05/10 10:05:30;;;;;;;15.07;14.20;;;30.30;59.20;;;;;;4957595;29;20206;-76
2022/05/10 10:07:57;;;;;;;13.35;12.45;;;30.80;59.70;;;;;;4955236;29;20193;-77
2022/05/10 10:10:26;;;;;;;10.00;9.27;;;30.80;58.20;;;;;;4968660;29;20224;-77
2022/05/10 10:12:52;;;;;;;13.85;13.15;;;30.80;56.20;;;;;;4958679;29;20678;-77
2022/05/10 10:15:21;;;;;;;9.32;8.55;;;31.10;57.50;;;;;;4966108;29;20217;-76
2022/05/10 10:17:53;;;;;;;6.57;6.07;;;30.80;55.80;;;;;;4959671;29;20178;-77
2022/05/10 10:20:22;;;;;;;5.75;5.25;;;30.60;55.80;;;;;;4956266;28;20564;-77
2022/05/10 10:22:52;;;;;;;5.50;5.13;;;30.50;55.20;;;;;;4957001;29;20240;-77
2022/05/10 10:25:42;;;;;;;5.95;5.38;;;30.20;54.50;;;;;;4956314;29;20206;-77
2022/05/10 10:28:17;;;;;;;6.07;5.68;;;30.10;53.80;;;;;;4962935;29;20196;-76
2022/05/10 10:30:58;;;;;;;6.28;5.55;;;30.30;55.20;;;;;;4966422;29;20204;-76
2022/05/10 10:33:39;;;;;;;6.28;5.80;;;30.50;54.50;;;;;;4958571;29;20272;-77
2022/05/10 10:36:09;;;;;;;5.97;5.57;;;31.00;54.10;;;;;;4957625;29;20192;-77
2022/05/10 10:39:16;;;;;;;9.25;8.43;;;31.70;52.80;;;;;;4957816;29;20632;-77
2022/05/10 10:42:07;;;;;;;10.35;9.77;;;32.70;47.80;;;;;;4957697;29;20558;-77
2022/05/10 10:44:37;;;;;;;9.95;9.35;;;32.50;47.00;;;;;;4957104;29;20202;-77
2022/05/10 10:47:27;;;;;;;9.65;9.10;;;32.40;47.60;;;;;;4958024;29;20182;-77
2022/05/10 10:50:17;;;;;;;6.28;5.78;;;32.60;48.10;;;;;;4962500;29;20209;-78
2022/05/10 10:52:43;;;;;;;5.65;5.18;;;33.30;46.60;;;;;;4953749;29;20217;-77
2022/05/10 10:55:09;;;;;;;5.97;5.47;;;33.40;46.90;;;;;;4954015;29;20264;-77
2022/05/10 10:58:07;;;;;;;6.25;5.75;;;32.90;46.80;;;;;;4952099;29;20182;-76
2022/05/10 11:00:37;;;;;;;8.13;7.60;;;32.40;47.10;;;;;;4952408;29;20617;-76
2022/05/10 11:03:14;;;;;;;5.70;5.25;;;32.10;47.70;;;;;;4952429;29;20327;-76
2022/05/10 11:05:49;;;;;;;5.40;4.70;;;32.10;48.10;;;;;;4953683;29;20276;-77
2022/05/10 11:08:44;;;;;;;6.80;6.28;;;32.30;46.30;;;;;;4952363;29;20193;-77
2022/05/10 11:11:22;;;;;;;10.18;9.50;;;32.90;46.40;;;;;;4953623;29;20190;-77
2022/05/10 11:13:54;;;;;;;8.57;7.97;;;33.20;45.90;;;;;;4953789;29;20709;-76
2022/05/10 11:16:36;;;;;;;12.38;11.57;;;33.60;44.50;;;;;;4946412;29;20193;-76
2022/05/10 11:19:30;;;;;;;10.00;9.30;;;33.80;43.50;;;;;;4931257;29;20183;-77
2022/05/10 11:22:19;;;;;;;10.95;10.20;;;33.40;43.00;;;;;;4916295;29;20196;-76
2022/05/10 11:25:16;;;;;;;9.00;8.50;;;33.00;44.80;;;;;;4934805;29;20206;-77
2022/05/10 11:27:57;;;;;;;11.23;10.30;;;32.20;44.50;;;;;;4933510;29;20686;-76
2022/05/10 11:30:27;;;;;;;9.77;9.27;;;31.60;46.00;;;;;;4932765;29;20190;-77
2022/05/10 11:33:00;;;;;;;12.43;11.75;;;32.10;45.20;;;;;;4933135;29;20221;-76
2022/05/10 11:35:35;;;;;;;9.13;8.40;;;32.30;43.70;;;;;;4933297;29;20186;-76
2022/05/10 11:38:27;;;;;;;7.72;7.32;;;32.80;41.90;;;;;;4930611;29;20201;-77
2022/05/10 11:41:02;;;;;;;5.57;5.18;;;33.40;42.00;;;;;;4897450;29;20195;-77
2022/05/10 11:43:48;;;;;;;5.18;4.88;;;34.60;39.30;;;;;;4913428;29;20213;-76
2022/05/10 11:46:52;;;;;;;4.65;4.30;;;35.00;41.10;;;;;;4914948;29;20191;-76
2022/05/10 11:49:30;;;;;;;5.43;5.05;;;35.50;37.20;;;;;;4913635;29;20197;-76
2022/05/10 11:52:21;;;;;;;5.00;4.70;;;35.20;37.30;;;;;;4915177;29;20302;-76
2022/05/10 11:55:05;;;;;;;4.28;4.03;;;34.90;35.50;;;;;;4917436;29;20206;-75
2022/05/10 11:57:33;;;;;;;4.45;4.15;;;35.10;35.20;;;;;;4914554;29;20533;-75
2022/05/10 12:00:42;;;;;;;4.28;3.97;;;35.40;35.00;;;;;;4914723;29;20187;-76
2022/05/10 12:03:32;;;;;;;5.20;4.80;;;35.70;35.20;;;;;;4914895;29;20187;-76
2022/05/10 12:06:23;;;;;;;6.90;6.50;;;36.50;33.50;;;;;;4913157;29;20191;-77
2022/05/10 12:08:54;;;;;;;5.43;5.00;;;36.20;33.00;;;;;;4920342;29;20187;-76
2022/05/10 12:11:30;;;;;;;5.43;5.07;;;36.00;34.30;;;;;;4915268;29;20219;-76
2022/05/10 12:22:19;;;;;;;4.50;4.03;;;34.40;37.60;;;;;;4933373;29;20242;-75
2022/05/10 12:24:50;;;;;;;5.40;4.90;;;33.70;36.80;;;;;;4933523;29;20276;-76
2022/05/10 12:27:16;;;;;;;5.50;5.18;;;33.40;37.40;;;;;;4934197;29;20193;-76
2022/05/10 12:29:42;;;;;;;5.85;5.40;;;33.20;38.50;;;;;;4935207;29;20269;-77
2022/05/10 12:32:38;;;;;;;5.50;5.15;;;33.10;38.30;;;;;;4933250;28;20644;-76
2022/05/10 12:35:08;;;;;;;4.65;4.32;;;33.00;38.70;;;;;;4933472;28;20213;-77
2022/05/10 12:37:48;;;;;;;4.90;4.47;;;32.70;37.40;;;;;;4925294;29;20191;-78
2022/05/10 12:40:19;;;;;;;4.25;3.97;;;32.80;38.40;;;;;;4928718;29;20183;-79
2022/05/10 12:43:01;;;;;;;5.45;4.68;;;33.50;38.30;;;;;;4925810;29;20203;-79
2022/05/10 12:45:56;;;;;;;4.38;4.10;;;33.90;38.60;;;;;;4926918;29;20186;-77
2022/05/10 12:48:24;;;;;;;5.63;4.85;;;34.30;37.40;;;;;;4927096;29;20202;-78
2022/05/10 12:50:53;;;;;;;4.47;4.28;;;34.20;36.60;;;;;;4942897;29;20189;-77
2022/05/10 12:53:27;;;;;;;4.57;4.38;;;33.40;37.00;;;;;;4939895;29;20218;-78
2022/05/10 12:56:20;;;;;;;4.95;4.53;;;32.90;36.00;;;;;;4921398;29;20871;-77
2022/05/10 12:58:52;;;;;;;4.70;4.38;;;33.10;37.80;;;;;;4935422;29;20183;-77
2022/05/10 13:01:21;;;;;;;4.55;4.35;;;33.10;36.60;;;;;;4922747;29;20256;-77
2022/05/10 13:03:54;;;;;;;4.20;4.00;;;34.10;34.90;;;;;;4935346;29;20202;-78
2022/05/10 13:06:39;;;;;;;5.53;5.13;;;34.00;37.80;;;;;;4929364;29;20190;-77
2022/05/10 13:09:25;;;;;;;5.00;4.53;;;33.10;37.80;;;;;;4937220;29;20190;-78
2022/05/10 13:12:01;;;;;;;4.78;4.47;;;32.60;40.20;;;;;;4936355;29;20686;-77
2022/05/10 13:14:30;;;;;;;4.57;4.38;;;32.70;40.90;;;;;;4937135;29;20214;-78
2022/05/10 13:16:56;;;;;;;4.45;4.18;;;33.10;39.80;;;;;;4946283;29;20182;-78
2022/05/10 13:19:25;;;;;;;4.72;4.32;;;33.00;39.10;;;;;;4941350;29;20314;-78
2022/05/10 13:21:52;;;;;;;5.35;4.95;;;33.30;40.00;;;;;;4938785;29;20215;-78
2022/05/10 13:24:20;;;;;;;5.82;5.43;;;33.60;38.80;;;;;;4936807;29;20230;-78
2022/05/10 13:27:05;;;;;;;5.50;5.05;;;33.30;38.50;;;;;;4936238;29;20186;-78
2022/05/10 13:29:48;;;;;;;6.00;5.60;;;33.20;38.70;;;;;;4937606;29;20205;-78
2022/05/10 13:32:34;;;;;;;6.32;5.82;;;34.00;37.50;;;;;;4938220;29;20301;-77
2022/05/10 13:35:22;;;;;;;6.50;6.10;;;33.60;38.90;;;;;;4937225;29;20260;-77
2022/05/10 13:38:12;;;;;;;5.90;5.50;;;33.40;38.60;;;;;;4946960;28;20187;-78
2022/05/10 13:40:43;;;;;;;6.60;6.07;;;33.60;39.70;;;;;;4938664;29;20559;-78
2022/05/10 13:43:20;;;;;;;7.90;7.20;;;33.60;39.00;;;;;;4944071;29;20503;-77
2022/05/10 13:45:59;;;;;;;8.63;7.80;;;33.70;37.40;;;;;;4935601;29;20190;-77
2022/05/10 13:48:32;;;;;;;5.65;5.32;;;33.60;37.30;;;;;;4936163;29;20216;-77
2022/05/10 13:51:09;;;;;;;5.93;5.53;;;33.60;38.30;;;;;;4936040;29;20265;-77
2022/05/10 13:53:36;;;;;;;6.40;5.90;;;33.70;38.60;;;;;;4934094;29;20242;-72
2022/05/10 13:56:04;;;;;;;6.45;5.97;;;33.20;38.20;;;;;;4934695;29;20576;-72
2022/05/10 13:58:37;;;;;;;5.25;4.75;;;33.20;38.30;;;;;;4934439;29;20186;-72
2022/05/10 14:01:04;;;;;;;5.05;4.75;;;33.20;37.30;;;;;;4934358;29;20194;-71
2022/05/10 14:03:30;;;;;;;5.20;4.80;;;33.40;37.70;;;;;;4933340;29;20209;-71
2022/05/10 14:06:08;;;;;;;5.20;4.70;;;33.40;36.00;;;;;;4935133;29;20293;-71
2022/05/10 14:08:39;;;;;;;7.13;5.72;;;33.00;36.80;;;;;;4934485;29;20189;-71
2022/05/10 14:11:09;;;;;;;4.97;4.55;;;32.60;37.50;;;;;;4933927;29;20537;-71
2022/05/10 14:13:56;;;;;;;9.50;8.70;;;32.60;37.90;;;;;;4933393;29;20224;-71
2022/05/10 14:16:51;;;;;;;7.20;6.55;;;32.70;40.20;;;;;;4934637;29;20424;-70
2022/05/10 14:19:31;;;;;;;9.10;8.18;;;32.30;40.20;;;;;;4925738;29;20190;-73
2022/05/10 14:22:04;;;;;;;9.20;8.30;;;31.60;40.80;;;;;;4934845;29;20186;-71
2022/05/10 14:24:36;;;;;;;10.10;9.50;;;30.60;41.60;;;;;;4932538;29;20218;-71
2022/05/10 14:27:13;;;;;;;14.02;12.93;;;30.20;41.30;;;;;;4932681;29;20187;-73
2022/05/10 14:29:43;;;;;;;9.65;8.75;;;30.50;42.50;;;;;;4933464;28;20194;-74
2022/05/10 14:32:12;;;;;;;12.65;11.57;;;31.10;42.10;;;;;;4937615;28;20214;-79
2022/05/10 14:35:00;;;;;;;12.88;11.95;;;31.40;41.50;;;;;;4935292;29;20719;-75
2022/05/10 14:37:41;;;;;;;8.48;7.65;;;31.60;40.60;;;;;;4918405;29;20182;-74
2022/05/10 14:40:30;;;;;;;10.15;9.25;;;31.20;41.40;;;;;;4915500;29;20210;-74
2022/05/10 14:42:57;;;;;;;9.43;8.73;;;31.30;40.60;;;;;;4930686;29;20222;-81
2022/05/10 14:45:30;;;;;;;7.70;7.20;;;31.40;40.00;;;;;;4937162;29;20186;-79
2022/05/10 14:47:57;;;;;;;7.68;7.07;;;31.40;40.40;;;;;;4937620;29;20252;-79
2022/05/10 14:50:36;;;;;;;8.75;8.25;;;31.10;40.70;;;;;;4941253;29;20246;-77
2022/05/10 14:53:33;;;;;;;7.18;6.68;;;30.70;40.00;;;;;;4942048;28;20653;-74
2022/05/10 14:56:01;;;;;;;6.07;5.78;;;30.80;42.40;;;;;;4915684;29;20198;-74
2022/05/10 14:58:33;;;;;;;8.52;7.95;;;31.20;39.30;;;;;;4919615;29;20555;-82
2022/05/10 15:01:34;;;;;;;7.03;6.53;;;31.50;40.70;;;;;;4943721;29;20197;-81
2022/05/10 15:04:29;;;;;;;6.45;6.05;;;31.50;38.20;;;;;;4939386;29;20224;-77
2022/05/10 15:06:55;;;;;;;8.15;7.53;;;31.40;40.30;;;;;;4934669;29;20209;-77
2022/05/10 15:09:21;;;;;;;8.27;7.70;;;31.30;40.50;;;;;;4943101;29;20647;-84
2022/05/10 15:14:32;;;;;;;10.95;9.82;;;30.40;42.90;;;;;;4994761;23;20247;-71
2022/05/10 15:16:59;;;;;;;10.98;9.50;;;29.80;44.40;;;;;;5024505;28;20262;-69
2022/05/10 15:19:24;;;;;;;8.75;8.05;;;29.50;44.90;;;;;;5011584;28;20206;-70
2022/05/10 15:21:50;;;;;;;16.17;15.07;;;29.10;46.00;;;;;;5010784;28;20215;-72
2022/05/10 15:24:17;;;;;;;21.08;19.75;;;28.70;46.20;;;;;;5003011;28;20280;-72
2022/05/10 15:26:54;;;;;;;27.88;25.98;;;28.80;47.30;;;;;;4991161;28;20179;-69
2022/05/10 15:29:24;;;;;;;28.42;26.08;;;29.00;46.40;;;;;;4991346;28;20187;-70
2022/05/10 15:31:50;;;;;;;30.20;28.25;;;28.90;46.40;;;;;;4991432;28;20730;-71
2022/05/10 15:37:01;;;;;;;38.25;35.00;;;29.10;46.60;;;;;;4991075;28;20667;-72
2022/05/10 15:39:28;;;;;;;26.23;24.35;;;29.20;46.30;;;;;;4991030;28;20208;-71
2022/05/10 15:41:53;;;;;;;35.05;31.70;;;29.30;46.10;;;;;;4991368;28;20231;-71
2022/05/10 15:44:19;;;;;;;51.20;46.58;;;29.30;45.50;;;;;;4991307;28;20200;-71
2022/05/10 15:46:45;;;;;;;33.28;30.45;;;29.30;46.00;;;;;;4990570;28;20192;-71
2022/05/10 15:49:12;;;;;;;39.53;36.03;;;29.20;46.80;;;;;;4991009;28;20235;-73
2022/05/10 15:51:41;;;;;;;40.88;37.83;;;29.20;47.10;;;;;;4989825;28;20191;-71
2022/05/10 15:54:09;;;;;;;33.22;30.73;;;29.40;46.50;;;;;;4993275;28;20570;-71
2022/05/10 15:56:35;;;;;;;21.52;20.02;;;29.60;46.50;;;;;;4990097;28;20238;-71
2022/05/10 15:59:01;;;;;;;21.73;20.40;;;29.40;45.30;;;;;;4989988;28;20177;-72
2022/05/10 16:01:26;;;;;;;24.95;23.35;;;29.30;46.20;;;;;;4991433;28;20869;-71
2022/05/10 16:03:52;;;;;;;26.73;25.13;;;29.00;47.60;;;;;;4991112;28;20207;-73
2022/05/10 16:06:18;;;;;;;25.58;24.10;;;28.50;49.60;;;;;;4994174;28;20264;-71
2022/05/10 16:08:44;;;;;;;38.83;36.55;;;28.10;50.90;;;;;;4989567;28;20180;-70
2022/05/10 16:11:09;;;;;;;36.67;34.38;;;28.00;51.50;;;;;;4991232;28;20191;-71
2022/05/10 16:13:35;;;;;;;42.50;39.85;;;28.00;51.10;;;;;;4990610;28;20192;-71
2022/05/10 16:16:01;;;;;;;42.72;40.22;;;28.20;51.50;;;;;;4990928;28;20196;-71
2022/05/10 16:18:27;;;;;;;36.88;34.85;;;28.30;50.70;;;;;;4992263;28;20594;-70
2022/05/10 16:20:53;;;;;;;32.90;30.60;;;28.30;50.30;;;;;;4994934;28;20192;-73